sensor_id;sensor_type;location;lat;lon;timestamp;P1;durP1;ratioP1;P2;durP2;ratioP2
35646;SDS011;28680;45.642;13.756;2023-05-10T00:00:08;3.15;;;2.10;;
35646;SDS011;28680;45.642;13.756;2023-05-10T00:02:37;3.65;;;1.98;;
35646;SDS011;28680;45.642;13.756;2023-05-10T00:05:04;3.72;;;1.85;;
35646;SDS011;28680;45.642;13.756;2023-05-10T00:07:30;3.08;;;1.70;;
35646;SDS011;28680;45.642;13.756;2023-05-10T00:09:56;2.30;;;1.60;;
35646;SDS011;28680;45.642;13.756;2023-05-10T00:12:22;3.15;;;2.10;;
35646;SDS011;28680;45.642;13.756;2023-05-10T00:14:48;2.83;;;1.55;;
35646;SDS011;28680;45.642;13.756;2023-05-10T00:17:14;2.75;;;1.80;;
35646;SDS011;28680;45.642;13.756;2023-05-10T00:19:40;2.97;;;1.90;;
35646;SDS011;28680;45.642;13.756;2023-05-10T00:22:05;5.05;;;2.17;;
35646;SDS011;28680;45.642;13.756;2023-05-10T00:24:31;6.47;;;2.10;;
35646;SDS011;28680;45.642;13.756;2023-05-10T00:26:57;4.05;;;2.00;;
35646;SDS011;28680;45.642;13.756;2023-05-10T00:29:23;4.20;;;1.90;;
35646;SDS011;28680;45.642;13.756;2023-05-10T00:31:49;3.58;;;1.80;;
35646;SDS011;28680;45.642;13.756;2023-05-10T00:34:15;3.38;;;1.92;;
35646;SDS011;28680;45.642;13.756;2023-05-10T00:36:41;3.95;;;1.92;;
35646;SDS011;28680;45.642;13.756;2023-05-10T00:39:06;2.85;;;2.00;;
35646;SDS011;28680;45.642;13.756;2023-05-10T00:41:32;3.05;;;1.83;;
35646;SDS011;28680;45.642;13.756;2023-05-10T00:43:58;2.47;;;1.63;;
35646;SDS011;28680;45.642;13.756;2023-05-10T00:46:25;2.22;;;1.63;;
35646;SDS011;28680;45.642;13.756;2023-05-10T00:48:52;4.13;;;2.10;;
35646;SDS011;28680;45.642;13.756;2023-05-10T00:51:18;5.68;;;1.60;;
35646;SDS011;28680;45.642;13.756;2023-05-10T00:53:45;3.92;;;1.70;;
35646;SDS011;28680;45.642;13.756;2023-05-10T00:56:11;4.55;;;1.90;;
35646;SDS011;28680;45.642;13.756;2023-05-10T00:58:38;2.67;;;1.90;;
35646;SDS011;28680;45.642;13.756;2023-05-10T01:01:07;3.20;;;1.70;;
35646;SDS011;28680;45.642;13.756;2023-05-10T01:03:34;3.28;;;2.10;;
35646;SDS011;28680;45.642;13.756;2023-05-10T01:06:01;3.90;;;2.00;;
35646;SDS011;28680;45.642;13.756;2023-05-10T01:08:28;2.17;;;1.80;;
35646;SDS011;28680;45.642;13.756;2023-05-10T01:10:54;3.20;;;1.85;;
35646;SDS011;28680;45.642;13.756;2023-05-10T01:16:01;3.10;;;2.15;;
35646;SDS011;28680;45.642;13.756;2023-05-10T01:18:28;2.67;;;1.92;;
35646;SDS011;28680;45.642;13.756;2023-05-10T01:32:36;5.05;;;2.20;;
35646;SDS011;28680;45.642;13.756;2023-05-10T01:37:50;4.65;;;2.40;;
35646;SDS011;28680;45.642;13.756;2023-05-10T01:40:35;3.53;;;1.80;;
35646;SDS011;28680;45.642;13.756;2023-05-10T01:43:04;6.10;;;2.40;;
35646;SDS011;28680;45.642;13.756;2023-05-10T01:45:41;4.65;;;2.10;;
35646;SDS011;28680;45.642;13.756;2023-05-10T01:48:19;3.00;;;1.75;;
35646;SDS011;28680;45.642;13.756;2023-05-10T01:50:47;2.92;;;1.95;;
35646;SDS011;28680;45.642;13.756;2023-05-10T01:53:17;3.25;;;2.08;;
35646;SDS011;28680;45.642;13.756;2023-05-10T01:55:49;2.45;;;2.08;;
35646;SDS011;28680;45.642;13.756;2023-05-10T01:58:29;5.05;;;2.50;;
35646;SDS011;28680;45.642;13.756;2023-05-10T02:01:00;2.97;;;2.22;;
35646;SDS011;28680;45.642;13.756;2023-05-10T02:03:29;3.20;;;2.22;;
35646;SDS011;28680;45.642;13.756;2023-05-10T02:05:57;2.90;;;1.90;;
35646;SDS011;28680;45.642;13.756;2023-05-10T02:08:24;5.30;;;2.10;;
35646;SDS011;28680;45.642;13.756;2023-05-10T02:10:51;2.90;;;2.10;;
35646;SDS011;28680;45.642;13.756;2023-05-10T02:13:21;3.90;;;2.00;;
35646;SDS011;28680;45.642;13.756;2023-05-10T02:15:50;2.63;;;2.10;;
35646;SDS011;28680;45.642;13.756;2023-05-10T02:18:18;3.00;;;2.00;;
35646;SDS011;28680;45.642;13.756;2023-05-10T02:20:45;2.60;;;1.73;;
35646;SDS011;28680;45.642;13.756;2023-05-10T02:23:12;3.35;;;2.03;;
35646;SDS011;28680;45.642;13.756;2023-05-10T02:25:40;3.55;;;2.25;;
35646;SDS011;28680;45.642;13.756;2023-05-10T02:28:08;3.33;;;2.10;;
35646;SDS011;28680;45.642;13.756;2023-05-10T02:30:35;3.35;;;2.30;;
35646;SDS011;28680;45.642;13.756;2023-05-10T02:33:01;2.85;;;2.20;;
35646;SDS011;28680;45.642;13.756;2023-05-10T02:35:30;3.10;;;1.90;;
35646;SDS011;28680;45.642;13.756;2023-05-10T02:37:58;3.47;;;2.10;;
35646;SDS011;28680;45.642;13.756;2023-05-10T02:40:25;4.43;;;2.17;;
35646;SDS011;28680;45.642;13.756;2023-05-10T02:42:54;3.75;;;2.10;;
35646;SDS011;28680;45.642;13.756;2023-05-10T02:45:23;2.28;;;2.00;;
35646;SDS011;28680;45.642;13.756;2023-05-10T02:47:54;5.00;;;1.63;;
35646;SDS011;28680;45.642;13.756;2023-05-10T02:50:20;3.35;;;1.98;;
35646;SDS011;28680;45.642;13.756;2023-05-10T02:52:49;3.50;;;1.90;;
35646;SDS011;28680;45.642;13.756;2023-05-10T02:55:19;3.95;;;2.28;;
35646;SDS011;28680;45.642;13.756;2023-05-10T02:57:51;2.78;;;1.95;;
35646;SDS011;28680;45.642;13.756;2023-05-10T03:00:24;3.85;;;2.25;;
35646;SDS011;28680;45.642;13.756;2023-05-10T03:02:50;4.32;;;2.25;;
35646;SDS011;28680;45.642;13.756;2023-05-10T03:05:17;4.03;;;2.38;;
35646;SDS011;28680;45.642;13.756;2023-05-10T03:07:43;3.30;;;2.33;;
35646;SDS011;28680;45.642;13.756;2023-05-10T03:10:10;2.95;;;2.20;;
35646;SDS011;28680;45.642;13.756;2023-05-10T03:18:30;4.13;;;2.33;;
35646;SDS011;28680;45.642;13.756;2023-05-10T03:21:30;3.05;;;2.33;;
35646;SDS011;28680;45.642;13.756;2023-05-10T03:26:33;4.60;;;2.20;;
35646;SDS011;28680;45.642;13.756;2023-05-10T03:29:00;4.78;;;2.30;;
35646;SDS011;28680;45.642;13.756;2023-05-10T03:31:27;4.75;;;2.30;;
35646;SDS011;28680;45.642;13.756;2023-05-10T03:33:53;3.53;;;2.40;;
35646;SDS011;28680;45.642;13.756;2023-05-10T03:36:19;4.38;;;2.30;;
35646;SDS011;28680;45.642;13.756;2023-05-10T03:38:45;4.30;;;2.35;;
35646;SDS011;28680;45.642;13.756;2023-05-10T03:41:10;3.90;;;2.28;;
35646;SDS011;28680;45.642;13.756;2023-05-10T03:43:36;4.90;;;2.40;;
35646;SDS011;28680;45.642;13.756;2023-05-10T03:46:03;4.18;;;2.50;;
35646;SDS011;28680;45.642;13.756;2023-05-10T03:48:30;3.95;;;2.47;;
35646;SDS011;28680;45.642;13.756;2023-05-10T03:50:57;5.93;;;2.65;;
35646;SDS011;28680;45.642;13.756;2023-05-10T03:53:23;4.25;;;2.60;;
35646;SDS011;28680;45.642;13.756;2023-05-10T03:55:49;3.50;;;2.20;;
35646;SDS011;28680;45.642;13.756;2023-05-10T03:58:15;6.95;;;2.85;;
35646;SDS011;28680;45.642;13.756;2023-05-10T04:00:41;5.68;;;2.83;;
35646;SDS011;28680;45.642;13.756;2023-05-10T04:03:10;3.28;;;2.50;;
35646;SDS011;28680;45.642;13.756;2023-05-10T04:05:38;4.28;;;2.30;;
35646;SDS011;28680;45.642;13.756;2023-05-10T04:08:04;5.40;;;2.50;;
35646;SDS011;28680;45.642;13.756;2023-05-10T04:10:31;6.57;;;2.40;;
35646;SDS011;28680;45.642;13.756;2023-05-10T04:12:57;3.63;;;2.60;;
35646;SDS011;28680;45.642;13.756;2023-05-10T04:15:23;3.58;;;2.63;;
35646;SDS011;28680;45.642;13.756;2023-05-10T04:17:49;2.72;;;2.40;;
35646;SDS011;28680;45.642;13.756;2023-05-10T04:20:15;4.90;;;2.78;;
35646;SDS011;28680;45.642;13.756;2023-05-10T04:22:41;3.50;;;2.10;;
35646;SDS011;28680;45.642;13.756;2023-05-10T04:25:07;4.15;;;2.50;;
35646;SDS011;28680;45.642;13.756;2023-05-10T04:27:34;3.83;;;2.33;;
35646;SDS011;28680;45.642;13.756;2023-05-10T04:30:00;5.15;;;2.50;;
35646;SDS011;28680;45.642;13.756;2023-05-10T04:32:25;3.60;;;2.50;;
35646;SDS011;28680;45.642;13.756;2023-05-10T04:34:51;4.32;;;2.53;;
35646;SDS011;28680;45.642;13.756;2023-05-10T04:37:18;6.93;;;2.75;;
35646;SDS011;28680;45.642;13.756;2023-05-10T04:39:44;5.38;;;2.47;;
35646;SDS011;28680;45.642;13.756;2023-05-10T04:42:10;4.78;;;2.38;;
35646;SDS011;28680;45.642;13.756;2023-05-10T04:44:36;3.95;;;2.58;;
35646;SDS011;28680;45.642;13.756;2023-05-10T04:47:02;5.22;;;2.38;;
35646;SDS011;28680;45.642;13.756;2023-05-10T04:49:29;6.47;;;2.90;;
35646;SDS011;28680;45.642;13.756;2023-05-10T04:51:55;7.10;;;2.95;;
35646;SDS011;28680;45.642;13.756;2023-05-10T04:54:21;7.47;;;2.60;;
35646;SDS011;28680;45.642;13.756;2023-05-10T04:56:47;4.47;;;2.40;;
35646;SDS011;28680;45.642;13.756;2023-05-10T04:59:13;3.70;;;2.45;;
35646;SDS011;28680;45.642;13.756;2023-05-10T05:01:39;3.38;;;2.55;;
35646;SDS011;28680;45.642;13.756;2023-05-10T05:04:05;3.17;;;2.55;;
35646;SDS011;28680;45.642;13.756;2023-05-10T05:06:31;6.45;;;3.00;;
35646;SDS011;28680;45.642;13.756;2023-05-10T05:08:57;4.65;;;2.42;;
35646;SDS011;28680;45.642;13.756;2023-05-10T05:11:23;4.85;;;2.47;;
35646;SDS011;28680;45.642;13.756;2023-05-10T05:13:50;4.15;;;2.60;;
35646;SDS011;28680;45.642;13.756;2023-05-10T05:16:16;7.75;;;2.60;;
35646;SDS011;28680;45.642;13.756;2023-05-10T05:18:42;3.97;;;2.65;;
35646;SDS011;28680;45.642;13.756;2023-05-10T05:21:18;4.55;;;2.60;;
35646;SDS011;28680;45.642;13.756;2023-05-10T05:23:47;4.68;;;2.95;;
35646;SDS011;28680;45.642;13.756;2023-05-10T05:26:13;5.50;;;2.70;;
35646;SDS011;28680;45.642;13.756;2023-05-10T05:28:39;4.38;;;3.08;;
35646;SDS011;28680;45.642;13.756;2023-05-10T05:31:06;8.45;;;3.08;;
35646;SDS011;28680;45.642;13.756;2023-05-10T05:33:32;4.15;;;2.40;;
35646;SDS011;28680;45.642;13.756;2023-05-10T05:36:02;4.15;;;2.60;;
35646;SDS011;28680;45.642;13.756;2023-05-10T05:38:30;3.97;;;2.42;;
35646;SDS011;28680;45.642;13.756;2023-05-10T05:40:56;5.72;;;2.85;;
35646;SDS011;28680;45.642;13.756;2023-05-10T05:43:22;3.63;;;2.67;;
35646;SDS011;28680;45.642;13.756;2023-05-10T05:45:49;4.72;;;2.75;;
35646;SDS011;28680;45.642;13.756;2023-05-10T05:48:16;4.95;;;2.67;;
35646;SDS011;28680;45.642;13.756;2023-05-10T05:50:42;5.22;;;2.90;;
35646;SDS011;28680;45.642;13.756;2023-05-10T05:53:09;3.50;;;2.50;;
35646;SDS011;28680;45.642;13.756;2023-05-10T05:55:34;8.98;;;2.70;;
35646;SDS011;28680;45.642;13.756;2023-05-10T05:58:00;4.32;;;2.58;;
35646;SDS011;28680;45.642;13.756;2023-05-10T06:00:26;4.85;;;3.08;;
35646;SDS011;28680;45.642;13.756;2023-05-10T06:02:52;4.72;;;3.03;;
35646;SDS011;28680;45.642;13.756;2023-05-10T06:05:18;3.53;;;2.33;;
35646;SDS011;28680;45.642;13.756;2023-05-10T06:07:45;4.20;;;2.83;;
35646;SDS011;28680;45.642;13.756;2023-05-10T06:10:11;7.38;;;2.88;;
35646;SDS011;28680;45.642;13.756;2023-05-10T06:12:37;7.75;;;2.72;;
35646;SDS011;28680;45.642;13.756;2023-05-10T06:15:03;5.53;;;2.97;;
35646;SDS011;28680;45.642;13.756;2023-05-10T06:17:30;4.43;;;2.53;;
35646;SDS011;28680;45.642;13.756;2023-05-10T06:19:55;7.22;;;2.45;;
35646;SDS011;28680;45.642;13.756;2023-05-10T06:22:21;5.75;;;2.80;;
35646;SDS011;28680;45.642;13.756;2023-05-10T06:24:48;5.15;;;2.47;;
35646;SDS011;28680;45.642;13.756;2023-05-10T06:27:14;2.65;;;2.17;;
35646;SDS011;28680;45.642;13.756;2023-05-10T06:29:40;7.68;;;3.28;;
35646;SDS011;28680;45.642;13.756;2023-05-10T06:32:06;5.05;;;2.85;;
35646;SDS011;28680;45.642;13.756;2023-05-10T06:34:32;3.05;;;2.60;;
35646;SDS011;28680;45.642;13.756;2023-05-10T06:36:58;4.13;;;2.60;;
35646;SDS011;28680;45.642;13.756;2023-05-10T06:39:24;5.78;;;2.90;;
35646;SDS011;28680;45.642;13.756;2023-05-10T06:41:50;7.60;;;2.88;;
35646;SDS011;28680;45.642;13.756;2023-05-10T06:44:16;7.07;;;3.05;;
35646;SDS011;28680;45.642;13.756;2023-05-10T06:46:41;4.07;;;2.88;;
35646;SDS011;28680;45.642;13.756;2023-05-10T06:49:07;7.57;;;3.60;;
35646;SDS011;28680;45.642;13.756;2023-05-10T06:51:33;8.38;;;3.25;;
35646;SDS011;28680;45.642;13.756;2023-05-10T06:53:59;6.30;;;3.15;;
35646;SDS011;28680;45.642;13.756;2023-05-10T06:56:25;4.78;;;2.72;;
35646;SDS011;28680;45.642;13.756;2023-05-10T06:58:51;3.92;;;2.70;;
35646;SDS011;28680;45.642;13.756;2023-05-10T07:01:17;5.50;;;3.70;;
35646;SDS011;28680;45.642;13.756;2023-05-10T07:03:43;3.83;;;2.92;;
35646;SDS011;28680;45.642;13.756;2023-05-10T07:06:09;5.95;;;2.78;;
35646;SDS011;28680;45.642;13.756;2023-05-10T07:08:35;5.93;;;2.83;;
35646;SDS011;28680;45.642;13.756;2023-05-10T07:11:05;6.13;;;2.72;;
35646;SDS011;28680;45.642;13.756;2023-05-10T07:13:35;7.63;;;3.28;;
35646;SDS011;28680;45.642;13.756;2023-05-10T07:16:01;4.07;;;3.00;;
35646;SDS011;28680;45.642;13.756;2023-05-10T07:18:27;4.47;;;2.53;;
35646;SDS011;28680;45.642;13.756;2023-05-10T07:20:53;5.28;;;3.03;;
35646;SDS011;28680;45.642;13.756;2023-05-10T07:23:20;7.53;;;2.78;;
35646;SDS011;28680;45.642;13.756;2023-05-10T07:25:46;3.50;;;2.25;;
35646;SDS011;28680;45.642;13.756;2023-05-10T07:28:14;3.58;;;2.70;;
35646;SDS011;28680;45.642;13.756;2023-05-10T07:30:41;4.85;;;2.65;;
35646;SDS011;28680;45.642;13.756;2023-05-10T07:33:08;3.83;;;2.83;;
35646;SDS011;28680;45.642;13.756;2023-05-10T07:35:35;4.32;;;2.83;;
35646;SDS011;28680;45.642;13.756;2023-05-10T07:38:01;5.13;;;3.35;;
35646;SDS011;28680;45.642;13.756;2023-05-10T07:40:27;5.40;;;3.25;;
35646;SDS011;28680;45.642;13.756;2023-05-10T07:42:53;5.05;;;2.78;;
35646;SDS011;28680;45.642;13.756;2023-05-10T07:45:19;5.18;;;2.80;;
35646;SDS011;28680;45.642;13.756;2023-05-10T07:47:45;3.95;;;2.90;;
35646;SDS011;28680;45.642;13.756;2023-05-10T07:50:12;5.47;;;3.10;;
35646;SDS011;28680;45.642;13.756;2023-05-10T07:52:38;5.47;;;2.83;;
35646;SDS011;28680;45.642;13.756;2023-05-10T07:55:04;6.10;;;2.90;;
35646;SDS011;28680;45.642;13.756;2023-05-10T07:57:32;4.65;;;2.70;;
35646;SDS011;28680;45.642;13.756;2023-05-10T08:00:01;4.47;;;3.50;;
35646;SDS011;28680;45.642;13.756;2023-05-10T08:02:28;7.32;;;3.20;;
35646;SDS011;28680;45.642;13.756;2023-05-10T08:04:54;4.85;;;3.03;;
35646;SDS011;28680;45.642;13.756;2023-05-10T08:07:20;5.25;;;3.20;;
35646;SDS011;28680;45.642;13.756;2023-05-10T08:09:46;4.78;;;2.70;;
35646;SDS011;28680;45.642;13.756;2023-05-10T08:12:12;7.60;;;3.30;;
35646;SDS011;28680;45.642;13.756;2023-05-10T08:14:38;5.57;;;3.10;;
35646;SDS011;28680;45.642;13.756;2023-05-10T08:17:04;4.47;;;2.97;;
35646;SDS011;28680;45.642;13.756;2023-05-10T08:19:30;3.70;;;2.78;;
35646;SDS011;28680;45.642;13.756;2023-05-10T08:21:56;4.95;;;3.08;;
35646;SDS011;28680;45.642;13.756;2023-05-10T08:24:22;4.60;;;2.88;;
35646;SDS011;28680;45.642;13.756;2023-05-10T08:26:48;9.95;;;3.15;;
35646;SDS011;28680;45.642;13.756;2023-05-10T08:29:14;6.60;;;3.15;;
35646;SDS011;28680;45.642;13.756;2023-05-10T08:31:40;4.28;;;3.10;;
35646;SDS011;28680;45.642;13.756;2023-05-10T08:34:06;7.95;;;3.15;;
35646;SDS011;28680;45.642;13.756;2023-05-10T08:36:32;5.85;;;3.15;;
35646;SDS011;28680;45.642;13.756;2023-05-10T08:38:58;5.95;;;2.85;;
35646;SDS011;28680;45.642;13.756;2023-05-10T08:41:24;7.22;;;3.10;;
35646;SDS011;28680;45.642;13.756;2023-05-10T08:43:51;7.85;;;3.35;;
35646;SDS011;28680;45.642;13.756;2023-05-10T08:46:19;6.47;;;3.58;;
35646;SDS011;28680;45.642;13.756;2023-05-10T08:48:47;7.18;;;3.17;;
35646;SDS011;28680;45.642;13.756;2023-05-10T08:51:18;7.32;;;3.42;;
35646;SDS011;28680;45.642;13.756;2023-05-10T08:53:51;4.03;;;3.05;;
35646;SDS011;28680;45.642;13.756;2023-05-10T08:56:17;6.32;;;3.35;;
35646;SDS011;28680;45.642;13.756;2023-05-10T08:58:45;4.85;;;3.40;;
35646;SDS011;28680;45.642;13.756;2023-05-10T09:01:13;7.05;;;3.25;;
35646;SDS011;28680;45.642;13.756;2023-05-10T09:03:43;6.85;;;3.40;;
35646;SDS011;28680;45.642;13.756;2023-05-10T09:06:11;4.85;;;3.40;;
35646;SDS011;28680;45.642;13.756;2023-05-10T09:08:38;6.90;;;4.07;;
35646;SDS011;28680;45.642;13.756;2023-05-10T09:11:06;5.82;;;3.78;;
35646;SDS011;28680;45.642;13.756;2023-05-10T09:13:34;4.80;;;3.63;;
35646;SDS011;28680;45.642;13.756;2023-05-10T09:16:02;5.53;;;3.55;;
35646;SDS011;28680;45.642;13.756;2023-05-10T09:18:28;5.78;;;3.25;;
35646;SDS011;28680;45.642;13.756;2023-05-10T09:20:54;5.40;;;3.40;;
35646;SDS011;28680;45.642;13.756;2023-05-10T09:23:20;8.30;;;3.35;;
35646;SDS011;28680;45.642;13.756;2023-05-10T09:25:46;5.35;;;3.50;;
35646;SDS011;28680;45.642;13.756;2023-05-10T09:28:12;5.80;;;3.60;;
35646;SDS011;28680;45.642;13.756;2023-05-10T09:30:38;7.80;;;3.20;;
35646;SDS011;28680;45.642;13.756;2023-05-10T09:33:04;7.38;;;3.17;;
35646;SDS011;28680;45.642;13.756;2023-05-10T09:35:31;7.25;;;3.67;;
35646;SDS011;28680;45.642;13.756;2023-05-10T09:38:02;8.65;;;4.15;;
35646;SDS011;28680;45.642;13.756;2023-05-10T09:40:30;6.78;;;3.63;;
35646;SDS011;28680;45.642;13.756;2023-05-10T09:42:57;6.03;;;3.42;;
35646;SDS011;28680;45.642;13.756;2023-05-10T09:45:28;5.30;;;4.00;;
35646;SDS011;28680;45.642;13.756;2023-05-10T09:47:56;6.32;;;3.72;;
35646;SDS011;28680;45.642;13.756;2023-05-10T09:50:23;9.23;;;3.75;;
35646;SDS011;28680;45.642;13.756;2023-05-10T09:55:24;4.65;;;3.42;;
35646;SDS011;28680;45.642;13.756;2023-05-10T09:58:14;5.68;;;3.50;;
35646;SDS011;28680;45.642;13.756;2023-05-10T10:00:41;4.97;;;3.58;;
35646;SDS011;28680;45.642;13.756;2023-05-10T10:03:16;6.90;;;3.80;;
35646;SDS011;28680;45.642;13.756;2023-05-10T10:05:46;6.22;;;3.60;;
35646;SDS011;28680;45.642;13.756;2023-05-10T10:08:13;3.70;;;2.95;;
35646;SDS011;28680;45.642;13.756;2023-05-10T10:10:40;7.97;;;4.43;;
35646;SDS011;28680;45.642;13.756;2023-05-10T10:13:09;6.47;;;3.75;;
35646;SDS011;28680;45.642;13.756;2023-05-10T10:15:35;5.78;;;3.40;;
35646;SDS011;28680;45.642;13.756;2023-05-10T10:18:01;7.85;;;3.42;;
35646;SDS011;28680;45.642;13.756;2023-05-10T10:20:29;5.05;;;3.55;;
35646;SDS011;28680;45.642;13.756;2023-05-10T10:22:55;8.35;;;3.65;;
35646;SDS011;28680;45.642;13.756;2023-05-10T10:25:21;4.72;;;3.50;;
35646;SDS011;28680;45.642;13.756;2023-05-10T10:32:48;5.93;;;4.00;;
35646;SDS011;28680;45.642;13.756;2023-05-10T10:35:29;6.05;;;4.22;;
35646;SDS011;28680;45.642;13.756;2023-05-10T10:37:55;7.15;;;4.40;;
35646;SDS011;28680;45.642;13.756;2023-05-10T10:40:30;8.07;;;4.20;;
35646;SDS011;28680;45.642;13.756;2023-05-10T10:42:58;7.85;;;3.88;;
35646;SDS011;28680;45.642;13.756;2023-05-10T10:48:47;7.28;;;4.00;;
35646;SDS011;28680;45.642;13.756;2023-05-10T10:51:37;5.57;;;3.75;;
35646;SDS011;28680;45.642;13.756;2023-05-10T10:54:10;6.65;;;4.13;;
35646;SDS011;28680;45.642;13.756;2023-05-10T10:56:36;5.65;;;4.20;;
35646;SDS011;28680;45.642;13.756;2023-05-10T10:59:02;5.97;;;4.35;;
35646;SDS011;28680;45.642;13.756;2023-05-10T11:01:34;6.90;;;4.28;;
35646;SDS011;28680;45.642;13.756;2023-05-10T11:06:32;5.43;;;3.70;;
35646;SDS011;28680;45.642;13.756;2023-05-10T11:09:06;7.85;;;4.22;;
35646;SDS011;28680;45.642;13.756;2023-05-10T11:11:34;6.47;;;4.07;;
35646;SDS011;28680;45.642;13.756;2023-05-10T11:14:04;7.65;;;3.75;;
35646;SDS011;28680;45.642;13.756;2023-05-10T11:16:41;6.10;;;3.85;;
35646;SDS011;28680;45.642;13.756;2023-05-10T11:19:10;6.15;;;4.20;;
35646;SDS011;28680;45.642;13.756;2023-05-10T11:21:44;6.57;;;3.88;;
35646;SDS011;28680;45.642;13.756;2023-05-10T11:24:16;5.95;;;3.78;;
35646;SDS011;28680;45.642;13.756;2023-05-10T11:26:52;5.80;;;4.00;;
35646;SDS011;28680;45.642;13.756;2023-05-10T11:29:19;8.40;;;4.00;;
35646;SDS011;28680;45.642;13.756;2023-05-10T11:31:45;10.02;;;4.78;;
35646;SDS011;28680;45.642;13.756;2023-05-10T11:34:33;5.75;;;4.40;;
35646;SDS011;28680;45.642;13.756;2023-05-10T11:36:59;5.07;;;3.75;;
35646;SDS011;28680;45.642;13.756;2023-05-10T11:39:29;7.28;;;4.43;;
35646;SDS011;28680;45.642;13.756;2023-05-10T11:41:57;8.02;;;4.20;;
35646;SDS011;28680;45.642;13.756;2023-05-10T11:44:23;6.75;;;3.92;;
35646;SDS011;28680;45.642;13.756;2023-05-10T11:47:00;5.07;;;3.63;;
35646;SDS011;28680;45.642;13.756;2023-05-10T11:49:26;6.32;;;4.15;;
35646;SDS011;28680;45.642;13.756;2023-05-10T11:51:52;6.05;;;4.05;;
35646;SDS011;28680;45.642;13.756;2023-05-10T11:54:28;6.43;;;4.00;;
35646;SDS011;28680;45.642;13.756;2023-05-10T11:56:54;7.93;;;3.90;;
35646;SDS011;28680;45.642;13.756;2023-05-10T11:59:20;7.10;;;3.90;;
35646;SDS011;28680;45.642;13.756;2023-05-10T12:01:45;7.10;;;3.88;;
35646;SDS011;28680;45.642;13.756;2023-05-10T12:04:11;4.57;;;3.83;;
35646;SDS011;28680;45.642;13.756;2023-05-10T12:06:39;4.97;;;3.78;;
35646;SDS011;28680;45.642;13.756;2023-05-10T12:09:06;6.55;;;3.90;;
35646;SDS011;28680;45.642;13.756;2023-05-10T12:11:37;6.60;;;3.80;;
35646;SDS011;28680;45.642;13.756;2023-05-10T12:14:08;5.53;;;4.25;;
35646;SDS011;28680;45.642;13.756;2023-05-10T12:16:34;5.32;;;3.92;;
35646;SDS011;28680;45.642;13.756;2023-05-10T12:19:01;6.38;;;3.92;;
35646;SDS011;28680;45.642;13.756;2023-05-10T12:21:28;7.82;;;4.30;;
35646;SDS011;28680;45.642;13.756;2023-05-10T12:23:58;5.25;;;3.40;;
35646;SDS011;28680;45.642;13.756;2023-05-10T12:26:28;5.45;;;3.38;;
35646;SDS011;28680;45.642;13.756;2023-05-10T12:28:55;5.35;;;3.83;;
35646;SDS011;28680;45.642;13.756;2023-05-10T12:31:57;5.47;;;3.92;;
35646;SDS011;28680;45.642;13.756;2023-05-10T12:36:58;6.30;;;3.80;;
35646;SDS011;28680;45.642;13.756;2023-05-10T12:39:24;5.00;;;3.45;;
35646;SDS011;28680;45.642;13.756;2023-05-10T12:41:51;6.28;;;4.15;;
35646;SDS011;28680;45.642;13.756;2023-05-10T12:44:17;7.90;;;4.00;;
35646;SDS011;28680;45.642;13.756;2023-05-10T12:46:43;4.63;;;3.65;;
35646;SDS011;28680;45.642;13.756;2023-05-10T12:49:09;5.18;;;3.65;;
35646;SDS011;28680;45.642;13.756;2023-05-10T12:51:35;4.47;;;3.70;;
35646;SDS011;28680;45.642;13.756;2023-05-10T12:54:02;6.15;;;4.18;;
35646;SDS011;28680;45.642;13.756;2023-05-10T12:56:28;5.25;;;3.63;;
35646;SDS011;28680;45.642;13.756;2023-05-10T12:58:54;6.22;;;3.40;;
35646;SDS011;28680;45.642;13.756;2023-05-10T13:01:20;7.45;;;3.38;;
35646;SDS011;28680;45.642;13.756;2023-05-10T13:03:46;5.63;;;3.60;;
35646;SDS011;28680;45.642;13.756;2023-05-10T13:06:12;6.63;;;4.43;;
35646;SDS011;28680;45.642;13.756;2023-05-10T13:08:38;5.22;;;3.20;;
35646;SDS011;28680;45.642;13.756;2023-05-10T13:11:05;6.93;;;3.80;;
35646;SDS011;28680;45.642;13.756;2023-05-10T13:13:31;5.68;;;3.95;;
35646;SDS011;28680;45.642;13.756;2023-05-10T13:15:58;7.43;;;4.30;;
35646;SDS011;28680;45.642;13.756;2023-05-10T13:18:24;6.13;;;4.00;;
35646;SDS011;28680;45.642;13.756;2023-05-10T13:20:51;5.15;;;3.90;;
35646;SDS011;28680;45.642;13.756;2023-05-10T13:23:16;4.88;;;4.00;;
35646;SDS011;28680;45.642;13.756;2023-05-10T13:25:42;5.25;;;4.05;;
35646;SDS011;28680;45.642;13.756;2023-05-10T13:28:08;5.78;;;3.90;;
35646;SDS011;28680;45.642;13.756;2023-05-10T13:30:34;7.78;;;4.05;;
35646;SDS011;28680;45.642;13.756;2023-05-10T13:33:00;6.07;;;4.10;;
35646;SDS011;28680;45.642;13.756;2023-05-10T13:35:26;6.10;;;3.78;;
35646;SDS011;28680;45.642;13.756;2023-05-10T13:37:52;6.65;;;3.85;;
35646;SDS011;28680;45.642;13.756;2023-05-10T13:40:18;6.20;;;4.32;;
35646;SDS011;28680;45.642;13.756;2023-05-10T13:42:44;4.88;;;3.42;;
35646;SDS011;28680;45.642;13.756;2023-05-10T13:45:10;4.88;;;4.20;;
35646;SDS011;28680;45.642;13.756;2023-05-10T13:47:38;5.10;;;3.78;;
35646;SDS011;28680;45.642;13.756;2023-05-10T13:50:04;5.25;;;4.20;;
35646;SDS011;28680;45.642;13.756;2023-05-10T13:52:30;5.15;;;3.83;;
35646;SDS011;28680;45.642;13.756;2023-05-10T13:54:56;4.78;;;4.10;;
35646;SDS011;28680;45.642;13.756;2023-05-10T13:57:22;5.60;;;3.97;;
35646;SDS011;28680;45.642;13.756;2023-05-10T13:59:49;5.82;;;3.95;;
35646;SDS011;28680;45.642;13.756;2023-05-10T14:02:15;7.43;;;4.32;;
35646;SDS011;28680;45.642;13.756;2023-05-10T14:04:41;8.52;;;4.45;;
35646;SDS011;28680;45.642;13.756;2023-05-10T14:07:07;4.60;;;4.10;;
35646;SDS011;28680;45.642;13.756;2023-05-10T14:09:33;13.02;;;4.60;;
35646;SDS011;28680;45.642;13.756;2023-05-10T14:11:58;5.97;;;4.68;;
35646;SDS011;28680;45.642;13.756;2023-05-10T14:14:24;8.02;;;4.70;;
35646;SDS011;28680;45.642;13.756;2023-05-10T14:16:50;8.50;;;5.03;;
35646;SDS011;28680;45.642;13.756;2023-05-10T14:19:16;4.80;;;4.10;;
35646;SDS011;28680;45.642;13.756;2023-05-10T14:21:42;6.93;;;4.32;;
35646;SDS011;28680;45.642;13.756;2023-05-10T14:24:08;8.77;;;5.38;;
35646;SDS011;28680;45.642;13.756;2023-05-10T14:26:34;5.55;;;4.60;;
35646;SDS011;28680;45.642;13.756;2023-05-10T14:29:00;7.07;;;4.63;;
35646;SDS011;28680;45.642;13.756;2023-05-10T14:31:26;7.50;;;5.03;;
35646;SDS011;28680;45.642;13.756;2023-05-10T14:33:52;7.05;;;4.38;;
35646;SDS011;28680;45.642;13.756;2023-05-10T14:36:18;5.70;;;4.65;;
35646;SDS011;28680;45.642;13.756;2023-05-10T14:38:44;6.43;;;4.50;;
35646;SDS011;28680;45.642;13.756;2023-05-10T14:41:10;5.78;;;4.90;;
35646;SDS011;28680;45.642;13.756;2023-05-10T14:43:39;9.38;;;5.30;;
35646;SDS011;28680;45.642;13.756;2023-05-10T14:46:06;6.30;;;4.43;;
35646;SDS011;28680;45.642;13.756;2023-05-10T14:48:33;7.13;;;5.07;;
35646;SDS011;28680;45.642;13.756;2023-05-10T14:50:59;5.05;;;4.55;;
35646;SDS011;28680;45.642;13.756;2023-05-10T14:53:25;7.05;;;4.72;;
35646;SDS011;28680;45.642;13.756;2023-05-10T14:55:51;7.30;;;4.70;;
35646;SDS011;28680;45.642;13.756;2023-05-10T14:58:17;6.50;;;5.10;;
35646;SDS011;28680;45.642;13.756;2023-05-10T15:00:43;6.18;;;5.10;;
35646;SDS011;28680;45.642;13.756;2023-05-10T15:03:09;6.20;;;5.00;;
35646;SDS011;28680;45.642;13.756;2023-05-10T15:05:34;4.65;;;4.18;;
35646;SDS011;28680;45.642;13.756;2023-05-10T15:08:02;5.25;;;4.75;;
35646;SDS011;28680;45.642;13.756;2023-05-10T15:10:29;5.57;;;4.43;;
35646;SDS011;28680;45.642;13.756;2023-05-10T15:12:55;9.55;;;4.78;;
35646;SDS011;28680;45.642;13.756;2023-05-10T15:15:21;6.88;;;4.88;;